createdAt,value
2023-05-10T00:00:55.724Z,63.26
2023-05-10T00:03:24.593Z,62.53
2023-05-10T00:05:52.605Z,62.99
2023-05-10T00:08:19.529Z,63.31
2023-05-10T00:10:51.293Z,63.11
2023-05-10T00:13:19.009Z,62.84
2023-05-10T00:15:53.568Z,63.16
2023-05-10T00:18:28.714Z,62.63
2023-05-10T00:20:55.880Z,62.83
2023-05-10T00:23:22.884Z,62.84
2023-05-10T00:25:56.155Z,63.33
2023-05-10T00:28:23.270Z,62.99
2023-05-10T00:30:55.651Z,62.63
2023-05-10T00:33:23.373Z,62.73
2023-05-10T00:35:53.029Z,63.73
2023-05-10T00:38:27.308Z,64.11
2023-05-10T00:40:54.522Z,64.17
2023-05-10T00:43:21.730Z,64.23
2023-05-10T00:45:49.077Z,63.08
2023-05-10T00:48:17.608Z,63.59
2023-05-10T00:50:55.791Z,63.61
2023-05-10T00:53:23.238Z,66.58
2023-05-10T00:55:54.264Z,64.51
2023-05-10T00:58:21.357Z,63.60
2023-05-10T01:00:49.706Z,63.23
2023-05-10T01:03:27.046Z,63.84
2023-05-10T01:06:01.468Z,64.18
2023-05-10T01:08:30.150Z,64.81
2023-05-10T01:11:02.810Z,64.04
2023-05-10T01:13:44.606Z,64.04
2023-05-10T01:16:19.671Z,63.97
2023-05-10T01:18:49.869Z,63.82
2023-05-10T01:21:33.817Z,64.15
2023-05-10T01:24:09.726Z,64.46
2023-05-10T01:26:45.810Z,64.69
2023-05-10T01:29:32.785Z,66.55
2023-05-10T01:32:34.976Z,64.93
2023-05-10T01:35:10.215Z,64.18
2023-05-10T01:38:08.289Z,65.19
2023-05-10T01:40:58.263Z,65.04
2023-05-10T01:43:35.296Z,63.83
2023-05-10T01:46:27.428Z,65.01
2023-05-10T01:49:03.650Z,64.87
2023-05-10T01:51:46.099Z,65.37
2023-05-10T01:54:25.490Z,65.26
2023-05-10T02:00:21.284Z,65.16
2023-05-10T02:02:50.962Z,65.97
2023-05-10T02:05:21.414Z,65.95
2023-05-10T02:07:52.586Z,65.94
2023-05-10T02:10:21.122Z,65.70
2023-05-10T02:12:52.142Z,65.15
2023-05-10T02:15:28.239Z,66.37
2023-05-10T02:18:05.525Z,65.67
2023-05-10T02:20:34.121Z,64.69
2023-05-10T02:23:07.458Z,64.26
2023-05-10T02:25:43.054Z,64.23
2023-05-10T02:28:14.797Z,64.91
2023-05-10T02:30:42.628Z,65.07
2023-05-10T02:33:13.110Z,64.99
2023-05-10T02:35:40.841Z,65.66
2023-05-10T02:38:09.083Z,64.81
2023-05-10T02:40:38.448Z,64.54
2023-05-10T02:43:07.753Z,65.45
2023-05-10T02:45:37.031Z,65.56
2023-05-10T02:48:04.424Z,65.43
2023-05-10T02:50:34.841Z,65.47
2023-05-10T02:53:11.069Z,65.13
2023-05-10T02:55:41.792Z,64.88
2023-05-10T02:58:08.958Z,64.76
2023-05-10T03:00:37.573Z,64.48
2023-05-10T03:03:04.665Z,64.75
2023-05-10T03:05:34.064Z,65.89
2023-05-10T03:08:04.872Z,65.59
2023-05-10T03:10:33.817Z,66.58
2023-05-10T03:13:22.662Z,66.08
2023-05-10T03:16:37.155Z,64.97
2023-05-10T03:19:21.900Z,65.65
2023-05-10T03:21:55.268Z,65.52
2023-05-10T03:24:24.675Z,65.13
2023-05-10T03:26:54.988Z,65.01
2023-05-10T03:29:23.645Z,65.52
2023-05-10T03:31:51.321Z,65.83
2023-05-10T03:34:18.734Z,65.41
2023-05-10T03:36:46.124Z,67.49
2023-05-10T03:39:13.297Z,66.30
2023-05-10T03:41:40.842Z,66.41
2023-05-10T03:44:16.906Z,66.05
2023-05-10T03:46:44.280Z,66.99
2023-05-10T03:49:11.381Z,66.72
2023-05-10T03:51:38.515Z,66.79
2023-05-10T03:54:05.564Z,67.94
2023-05-10T03:56:34.028Z,66.86
2023-05-10T03:59:01.019Z,66.34
2023-05-10T04:01:27.964Z,66.16
2023-05-10T04:04:00.623Z,66.08
2023-05-10T04:06:31.695Z,66.32
2023-05-10T04:09:01.620Z,66.24
2023-05-10T04:11:29.352Z,65.86
2023-05-10T04:14:07.191Z,65.36
2023-05-10T04:16:39.486Z,65.41
2023-05-10T04:19:09.831Z,65.17
2023-05-10T04:21:40.431Z,66.45
2023-05-10T04:24:16.437Z,65.66
2023-05-10T04:26:43.456Z,65.67
2023-05-10T04:29:10.355Z,67.10
2023-05-10T04:31:46.429Z,67.23
2023-05-10T04:34:13.427Z,66.97
2023-05-10T04:36:40.386Z,68.05
2023-05-10T04:39:07.289Z,66.20
2023-05-10T04:41:34.240Z,65.59
2023-05-10T04:44:04.205Z,65.65
2023-05-10T04:46:31.130Z,65.69
2023-05-10T04:49:01.745Z,66.33
2023-05-10T04:51:28.784Z,67.16
2023-05-10T04:54:05.984Z,66.81
2023-05-10T04:56:34.805Z,67.38
2023-05-10T04:59:04.844Z,67.92
2023-05-10T05:01:34.852Z,67.74
2023-05-10T05:04:02.042Z,65.66
2023-05-10T05:06:29.187Z,65.91
2023-05-10T05:08:56.205Z,66.15
2023-05-10T05:11:27.264Z,69.61
2023-05-10T05:13:54.492Z,70.48
2023-05-10T05:16:21.472Z,70.17
2023-05-10T05:18:51.165Z,69.01
2023-05-10T05:21:18.750Z,70.16
2023-05-10T05:23:47.214Z,68.76
2023-05-10T05:26:17.297Z,67.11
2023-05-10T05:28:44.367Z,67.30
2023-05-10T05:31:17.963Z,67.92
2023-05-10T05:33:44.911Z,67.91
2023-05-10T05:36:11.916Z,66.11
2023-05-10T05:38:38.837Z,66.28
2023-05-10T05:41:06.252Z,66.37
2023-05-10T05:43:33.169Z,66.14
2023-05-10T05:46:00.629Z,66.46
2023-05-10T05:48:30.408Z,67.17
2023-05-10T05:51:00.541Z,67.43
2023-05-10T05:53:27.569Z,68.19
2023-05-10T05:55:55.526Z,67.63
2023-05-10T05:58:23.582Z,66.61
2023-05-10T06:00:54.505Z,66.66
2023-05-10T06:03:24.723Z,67.14
2023-05-10T06:05:52.564Z,67.69
2023-05-10T06:08:19.549Z,67.95
2023-05-10T06:10:48.188Z,67.19
2023-05-10T06:13:17.539Z,67.06
2023-05-10T06:15:44.463Z,67.67
2023-05-10T06:18:11.483Z,68.78
2023-05-10T06:20:52.160Z,67.52
2023-05-10T06:23:24.638Z,67.44
2023-05-10T06:25:53.463Z,67.59
2023-05-10T06:28:21.401Z,68.22
2023-05-10T06:30:50.164Z,66.56
2023-05-10T06:33:18.968Z,66.76
2023-05-10T06:35:50.382Z,67.94
2023-05-10T06:38:22.846Z,67.43
2023-05-10T06:40:54.299Z,67.29
2023-05-10T06:43:21.294Z,69.12
2023-05-10T06:45:52.292Z,67.52
2023-05-10T06:48:19.284Z,68.21
2023-05-10T06:50:56.521Z,67.63
2023-05-10T06:53:40.368Z,66.25
2023-05-10T06:56:10.261Z,65.50
2023-05-10T06:58:44.810Z,65.49
2023-05-10T07:01:11.992Z,66.60
2023-05-10T07:03:40.095Z,67.80
2023-05-10T07:06:29.470Z,66.87
2023-05-10T07:09:02.239Z,67.02
2023-05-10T07:11:35.120Z,66.84
2023-05-10T07:14:04.259Z,67.29
2023-05-10T07:16:31.276Z,66.84
2023-05-10T07:18:58.633Z,68.53
2023-05-10T07:21:25.581Z,68.03
2023-05-10T07:23:53.006Z,67.37
2023-05-10T07:26:20.707Z,67.07
2023-05-10T07:28:48.299Z,67.77
2023-05-10T07:31:15.267Z,67.94
2023-05-10T07:33:43.451Z,68.62
2023-05-10T07:36:10.451Z,68.38
2023-05-10T07:38:40.234Z,67.55
2023-05-10T07:41:11.125Z,67.43
2023-05-10T07:43:38.290Z,67.58
2023-05-10T07:46:05.452Z,69.03
2023-05-10T07:48:32.709Z,67.89
2023-05-10T07:51:01.088Z,66.92
2023-05-10T07:53:31.429Z,66.20
2023-05-10T07:56:03.242Z,66.47
2023-05-10T07:58:33.752Z,66.15
2023-05-10T08:01:03.801Z,66.65
2023-05-10T08:03:34.308Z,66.36
2023-05-10T08:06:01.454Z,67.50
2023-05-10T08:08:28.773Z,66.60
2023-05-10T08:10:55.904Z,66.77
2023-05-10T08:13:24.876Z,67.61
2023-05-10T08:15:54.393Z,67.58
2023-05-10T08:18:24.961Z,68.03
2023-05-10T08:20:53.681Z,68.91
2023-05-10T08:23:35.691Z,69.58
2023-05-10T08:26:06.621Z,67.52
2023-05-10T08:28:36.571Z,68.30
2023-05-10T08:31:11.547Z,68.76
2023-05-10T08:33:38.650Z,68.11
2023-05-10T08:36:05.725Z,68.55
2023-05-10T08:38:32.757Z,70.17
2023-05-10T08:41:07.582Z,69.28
2023-05-10T08:43:37.223Z,69.52
2023-05-10T08:46:06.738Z,69.39
2023-05-10T08:48:35.730Z,68.84
2023-05-10T08:51:06.265Z,68.60
2023-05-10T08:53:37.882Z,68.67
2023-05-10T08:56:14.658Z,68.03
2023-05-10T08:58:41.968Z,70.01
2023-05-10T09:01:10.117Z,69.45
2023-05-10T09:03:40.258Z,70.12
2023-05-10T09:06:15.746Z,68.93
2023-05-10T09:08:44.355Z,68.89
2023-05-10T09:11:15.518Z,69.01
2023-05-10T09:13:45.736Z,68.47
2023-05-10T09:16:21.933Z,69.35
2023-05-10T09:18:54.165Z,67.92
2023-05-10T09:21:28.307Z,68.80
2023-05-10T09:23:56.998Z,67.42
2023-05-10T09:26:25.722Z,67.52
2023-05-10T09:28:54.029Z,67.26
2023-05-10T09:31:21.582Z,66.78
2023-05-10T09:33:51.011Z,67.66
2023-05-10T09:36:18.252Z,69.03
2023-05-10T09:38:54.161Z,69.95
2023-05-10T09:41:28.874Z,69.01
2023-05-10T09:44:02.176Z,66.93
2023-05-10T09:46:29.233Z,68.00
2023-05-10T09:48:56.256Z,66.70
2023-05-10T09:51:36.110Z,67.91
2023-05-10T09:54:15.237Z,67.71
2023-05-10T09:56:45.871Z,68.08
2023-05-10T09:59:13.880Z,67.58
2023-05-10T10:01:41.976Z,65.97
2023-05-10T10:04:12.503Z,66.91
2023-05-10T10:06:41.927Z,67.78
2023-05-10T10:09:11.391Z,67.03
2023-05-10T10:11:39.822Z,67.10
2023-05-10T10:14:07.199Z,67.57
2023-05-10T10:16:37.600Z,67.41
2023-05-10T10:19:11.858Z,68.91
2023-05-10T10:21:41.761Z,69.55
2023-05-10T10:24:08.864Z,70.21
2023-05-10T10:26:43.332Z,69.46
2023-05-10T10:29:36.463Z,68.53
2023-05-10T10:32:28.116Z,70.13
2023-05-10T10:35:00.561Z,69.96
2023-05-10T10:37:46.637Z,72.12
2023-05-10T10:40:46.225Z,72.05
2023-05-10T10:43:30.738Z,72.79
2023-05-10T10:46:18.698Z,74.68
2023-05-10T10:49:11.735Z,74.69
2023-05-10T10:51:42.135Z,72.66
2023-05-10T10:54:16.899Z,71.14
2023-05-10T10:56:45.978Z,73.82
2023-05-10T10:59:13.306Z,75.25
2023-05-10T11:01:53.400Z,75.79
2023-05-10T11:04:23.375Z,76.50
2023-05-10T11:06:53.292Z,78.49
2023-05-10T11:09:23.398Z,77.29
2023-05-10T11:11:56.660Z,76.84
2023-05-10T11:14:26.666Z,78.14
2023-05-10T11:16:56.740Z,79.46
2023-05-10T11:19:29.224Z,79.93
2023-05-10T11:22:05.350Z,80.89
2023-05-10T11:24:32.866Z,80.68
2023-05-10T11:27:00.837Z,81.25
2023-05-10T11:29:28.046Z,82.00
2023-05-10T11:31:59.161Z,81.31
2023-05-10T11:34:27.853Z,81.95
2023-05-10T11:36:56.470Z,82.64
2023-05-10T11:39:30.760Z,83.67
2023-05-10T11:41:58.869Z,84.45
2023-05-10T11:44:35.321Z,84.45
2023-05-10T11:47:03.418Z,84.90
2023-05-10T11:49:30.882Z,84.71
2023-05-10T11:52:09.226Z,84.60
2023-05-10T11:54:36.831Z,85.43
2023-05-10T11:57:04.795Z,85.77
2023-05-10T11:59:31.927Z,84.37
2023-05-10T12:01:59.289Z,84.00
2023-05-10T12:04:31.807Z,84.36
2023-05-10T12:06:59.064Z,83.96
2023-05-10T12:09:39.588Z,84.17
2023-05-10T12:12:10.041Z,84.36
2023-05-10T12:14:37.075Z,83.18
2023-05-10T12:17:04.196Z,83.34
2023-05-10T12:19:42.226Z,83.41
2023-05-10T12:22:10.135Z,84.98
2023-05-10T12:24:41.895Z,84.79
2023-05-10T12:27:12.550Z,85.27
2023-05-10T12:29:45.730Z,84.05
2023-05-10T12:32:13.038Z,84.06
2023-05-10T12:34:40.443Z,85.11
2023-05-10T12:37:07.492Z,85.22
2023-05-10T12:39:50.521Z,84.26
2023-05-10T12:42:22.392Z,85.33
2023-05-10T12:45:00.554Z,83.95
2023-05-10T12:47:32.090Z,84.52
2023-05-10T12:50:04.163Z,84.12
2023-05-10T12:52:33.557Z,85.48
2023-05-10T12:55:01.643Z,87.01
2023-05-10T12:57:30.975Z,85.66
2023-05-10T13:00:01.186Z,86.13
2023-05-10T13:02:30.832Z,87.62
2023-05-10T13:04:57.812Z,86.28
2023-05-10T13:07:24.959Z,86.88
2023-05-10T13:09:53.507Z,87.44
2023-05-10T13:12:21.617Z,87.67
2023-05-10T13:14:51.061Z,87.17
2023-05-10T13:17:18.312Z,86.90
2023-05-10T13:19:47.939Z,88.25
2023-05-10T13:22:17.202Z,89.33
2023-05-10T13:24:47.937Z,89.74
2023-05-10T13:27:21.153Z,89.23
2023-05-10T13:29:49.128Z,89.09
2023-05-10T13:32:16.336Z,88.99
2023-05-10T13:34:43.414Z,89.36
2023-05-10T13:37:15.289Z,89.06
2023-05-10T13:39:44.114Z,87.05
2023-05-10T13:42:11.267Z,86.84
2023-05-10T13:44:43.335Z,86.76
2023-05-10T13:47:13.433Z,86.13
2023-05-10T13:49:40.772Z,86.56
2023-05-10T13:52:10.183Z,87.41
2023-05-10T13:54:43.116Z,88.27
2023-05-10T13:57:20.514Z,88.58
2023-05-10T13:59:47.930Z,89.02
2023-05-10T14:02:14.991Z,89.50
2023-05-10T14:04:44.168Z,90.69
2023-05-10T14:09:53.841Z,89.69
2023-05-10T14:12:21.272Z,88.89
2023-05-10T14:14:49.586Z,88.73
2023-05-10T14:17:22.675Z,87.16
2023-05-10T14:19:50.051Z,86.17
2023-05-10T14:22:17.162Z,87.47
2023-05-10T14:24:48.314Z,88.22
2023-05-10T14:27:20.293Z,87.31
2023-05-10T14:29:48.661Z,87.53
2023-05-10T14:32:19.725Z,87.98
2023-05-10T14:34:46.835Z,87.13
2023-05-10T14:37:16.460Z,87.03
2023-05-10T14:39:44.772Z,87.30
2023-05-10T14:42:13.106Z,89.21
2023-05-10T14:44:42.138Z,88.56
2023-05-10T14:47:12.344Z,87.98
2023-05-10T14:49:42.542Z,88.38
2023-05-10T14:52:11.375Z,88.66
2023-05-10T14:54:41.213Z,88.16
2023-05-10T14:57:09.370Z,88.21
2023-05-10T14:59:36.398Z,88.98
2023-05-10T15:02:09.709Z,89.59
2023-05-10T15:04:39.154Z,89.26
2023-05-10T15:07:07.079Z,88.51
2023-05-10T15:09:36.963Z,88.98
2023-05-10T15:12:03.941Z,89.87
2023-05-10T15:14:32.322Z,88.76
2023-05-10T15:17:04.970Z,87.85
2023-05-10T15:19:31.944Z,88.00
2023-05-10T15:22:04.049Z,87.83
2023-05-10T15:24:32.175Z,87.42
2023-05-10T15:26:59.243Z,86.35
2023-05-10T15:29:26.131Z,87.02
2023-05-10T15:31:53.600Z,86.82
2023-05-10T15:34:22.517Z,86.88
2023-05-10T15:36:49.696Z,86.58
2023-05-10T15:39:16.617Z,86.19
2023-05-10T15:41:43.601Z,87.03
2023-05-10T15:44:10.511Z,88.01
2023-05-10T15:46:41.637Z,87.56
2023-05-10T15:49:08.691Z,87.85
2023-05-10T15:51:36.782Z,87.78
2023-05-10T15:54:07.702Z,87.93
2023-05-10T15:56:45.582Z,88.82
2023-05-10T15:59:13.635Z,88.61
2023-05-10T16:01:45.197Z,89.16
2023-05-10T16:04:18.729Z,89.41
2023-05-10T16:06:49.631Z,88.53
2023-05-10T16:09:16.637Z,88.15
2023-05-10T16:11:44.545Z,87.63
2023-05-10T16:14:13.347Z,87.35
2023-05-10T16:16:44.513Z,88.02
2023-05-10T16:19:16.417Z,88.54
2023-05-10T16:21:44.977Z,88.90
2023-05-10T16:24:12.252Z,87.79
2023-05-10T16:26:41.316Z,88.94
2023-05-10T16:29:09.203Z,88.78
2023-05-10T16:31:36.406Z,88.48
2023-05-10T16:34:05.306Z,88.34
2023-05-10T16:36:34.444Z,89.03
2023-05-10T16:39:03.615Z,89.16
2023-05-10T16:41:37.132Z,88.95
2023-05-10T16:44:20.149Z,88.40
2023-05-10T16:46:47.716Z,87.29
2023-05-10T16:49:17.233Z,88.88
2023-05-10T16:51:44.268Z,88.18
2023-05-10T16:54:14.152Z,87.42
2023-05-10T16:56:43.288Z,87.41
2023-05-10T16:59:12.746Z,86.80
2023-05-10T17:01:44.497Z,86.36
2023-05-10T17:04:11.665Z,86.81
2023-05-10T17:06:42.587Z,87.58
2023-05-10T17:09:09.548Z,88.60
2023-05-10T17:11:37.655Z,88.54
2023-05-10T17:14:04.612Z,88.48
2023-05-10T17:16:31.639Z,87.37
2023-05-10T17:18:59.798Z,87.68
2023-05-10T17:21:28.832Z,87.07
2023-05-10T17:24:03.711Z,86.82
2023-05-10T17:26:31.002Z,87.15
2023-05-10T17:28:58.268Z,87.57
2023-05-10T17:31:28.120Z,87.52
2023-05-10T17:33:55.127Z,87.48
2023-05-10T17:36:23.459Z,87.38
2023-05-10T17:38:50.862Z,87.51
2023-05-10T17:41:23.836Z,86.95
2023-05-10T17:43:51.080Z,86.80
2023-05-10T17:46:21.493Z,86.08
2023-05-10T17:48:55.598Z,86.71
2023-05-10T17:51:35.686Z,86.47
2023-05-10T17:54:06.987Z,87.47
2023-05-10T17:56:42.629Z,87.67
2023-05-10T17:59:23.023Z,87.62
2023-05-10T18:01:51.366Z,87.86
2023-05-10T18:04:28.653Z,87.98
2023-05-10T18:07:01.982Z,88.34
2023-05-10T18:09:30.503Z,88.53
2023-05-10T18:12:03.751Z,87.88
2023-05-10T18:14:40.491Z,87.94
2023-05-10T18:17:31.766Z,87.78
2023-05-10T18:20:04.643Z,87.32
2023-05-10T18:22:34.677Z,87.59
2023-05-10T18:25:04.968Z,87.78
2023-05-10T18:27:39.478Z,88.22
2023-05-10T18:30:12.899Z,88.63
2023-05-10T18:32:52.739Z,88.41
2023-05-10T18:35:45.100Z,88.68
2023-05-10T18:38:15.113Z,89.50
2023-05-10T18:40:42.121Z,89.65
2023-05-10T18:43:17.110Z,90.34
2023-05-10T18:45:56.506Z,90.13
2023-05-10T18:48:32.695Z,89.99
2023-05-10T18:51:00.215Z,88.74
2023-05-10T18:53:47.264Z,88.87
2023-05-10T18:56:28.235Z,89.22
2023-05-10T18:59:03.944Z,89.33
2023-05-10T19:01:32.389Z,89.82
2023-05-10T19:04:01.444Z,90.07
2023-05-10T19:06:37.895Z,91.13
2023-05-10T19:09:10.221Z,90.67
2023-05-10T19:11:40.537Z,89.01
2023-05-10T19:14:14.127Z,88.80
2023-05-10T19:16:45.676Z,89.49
2023-05-10T19:19:20.692Z,89.08
2023-05-10T19:21:49.092Z,89.06
2023-05-10T19:24:26.132Z,88.66
2023-05-10T19:26:58.206Z,88.92
2023-05-10T19:29:30.715Z,89.36
2023-05-10T19:32:15.088Z,89.87
2023-05-10T19:34:50.983Z,90.22
2023-05-10T19:37:18.554Z,90.45
2023-05-10T19:39:51.735Z,90.61
2023-05-10T19:42:27.228Z,90.35
2023-05-10T19:45:06.532Z,89.76
2023-05-10T19:50:20.181Z,88.88
2023-05-10T19:52:59.102Z,88.36
2023-05-10T19:55:30.998Z,89.86
2023-05-10T19:58:01.501Z,90.49
2023-05-10T20:00:29.085Z,90.59
2023-05-10T20:03:09.138Z,90.46
2023-05-10T20:05:38.036Z,89.14
2023-05-10T20:08:17.411Z,88.74
2023-05-10T20:10:44.900Z,88.16
2023-05-10T20:13:12.192Z,88.36
2023-05-10T20:15:39.237Z,87.92
2023-05-10T20:18:09.430Z,87.54
2023-05-10T20:20:42.819Z,86.87
2023-05-10T20:23:10.847Z,86.55
2023-05-10T20:25:41.832Z,87.12
2023-05-10T20:28:14.309Z,87.16
2023-05-10T20:30:44.920Z,88.00
2023-05-10T20:33:12.019Z,88.27
2023-05-10T20:35:39.981Z,89.47
2023-05-10T20:38:08.281Z,89.80
2023-05-10T20:40:43.763Z,88.90
2023-05-10T20:43:12.823Z,89.12
2023-05-10T20:45:41.189Z,90.26
2023-05-10T20:48:12.873Z,90.17
2023-05-10T20:50:48.489Z,89.31
2023-05-10T20:53:23.354Z,88.49
2023-05-10T20:55:51.386Z,88.26
2023-05-10T20:58:20.054Z,88.02
2023-05-10T21:00:52.283Z,87.35
2023-05-10T21:03:22.183Z,86.68
2023-05-10T21:05:49.242Z,87.21
2023-05-10T21:08:16.512Z,87.78
2023-05-10T21:10:43.834Z,87.64
2023-05-10T21:13:10.955Z,87.82
2023-05-10T21:15:42.996Z,89.26
2023-05-10T21:18:21.138Z,89.32
2023-05-10T21:21:01.331Z,90.28
2023-05-10T21:23:29.601Z,90.80
2023-05-10T21:25:56.648Z,90.89
2023-05-10T21:28:25.445Z,89.55
2023-05-10T21:30:52.449Z,89.87
2023-05-10T21:33:19.404Z,90.38
2023-05-10T21:35:46.413Z,90.64
2023-05-10T21:38:13.526Z,90.06
2023-05-10T21:40:40.759Z,89.91
2023-05-10T21:43:08.797Z,89.91
2023-05-10T21:45:36.831Z,88.83
2023-05-10T21:48:06.923Z,89.04
2023-05-10T21:50:37.961Z,89.78
2023-05-10T21:53:05.525Z,89.42
2023-05-10T21:55:40.067Z,90.17
2023-05-10T21:58:07.789Z,89.56
2023-05-10T22:00:35.986Z,90.31
2023-05-10T22:03:03.118Z,90.37
2023-05-10T22:05:34.163Z,89.85
2023-05-10T22:08:01.931Z,89.16
2023-05-10T22:10:36.881Z,89.85
2023-05-10T22:13:06.871Z,89.09
2023-05-10T22:15:36.299Z,89.47
2023-05-10T22:18:03.676Z,90.69
2023-05-10T22:20:30.788Z,90.67
2023-05-10T22:22:57.762Z,90.71
2023-05-10T22:25:28.214Z,90.74
2023-05-10T22:27:58.226Z,90.79
2023-05-10T22:30:27.716Z,89.93
2023-05-10T22:32:54.712Z,90.53
2023-05-10T22:35:23.163Z,89.86
2023-05-10T22:37:52.934Z,88.60
2023-05-10T22:40:24.103Z,88.90
2023-05-10T22:42:51.212Z,90.43
2023-05-10T22:45:19.413Z,91.37
2023-05-10T22:47:47.587Z,91.21
2023-05-10T22:50:18.220Z,92.00
2023-05-10T22:52:48.250Z,92.33
2023-05-10T22:55:15.347Z,91.85
2023-05-10T22:57:46.084Z,90.93
2023-05-10T23:00:13.819Z,89.95
2023-05-10T23:02:46.568Z,89.58
2023-05-10T23:05:19.546Z,89.67
2023-05-10T23:07:59.217Z,90.14
2023-05-10T23:10:35.212Z,90.16
2023-05-10T23:13:03.115Z,90.13
2023-05-10T23:15:35.907Z,90.63
2023-05-10T23:18:06.120Z,90.97
2023-05-10T23:20:33.413Z,90.76
2023-05-10T23:23:01.028Z,89.09
2023-05-10T23:25:28.194Z,89.28
2023-05-10T23:27:57.356Z,89.24
2023-05-10T23:30:36.648Z,89.00
2023-05-10T23:33:05.082Z,88.82
2023-05-10T23:35:36.068Z,88.75
2023-05-10T23:38:05.540Z,89.24
2023-05-10T23:40:32.547Z,89.83
2023-05-10T23:43:02.376Z,90.85
2023-05-10T23:45:29.376Z,91.61
2023-05-10T23:48:02.425Z,91.47
2023-05-10T23:50:31.132Z,93.11
2023-05-10T23:52:58.043Z,91.31
2023-05-10T23:55:27.784Z,92.51
2023-05-10T23:57:59.078Z,91.88
